sensor_id;sensor_type;location;lat;lon;timestamp;pressure;altitude;pressure_sealevel;temperature;humidity
55456;BME280;63021;52.836;6.376;2022-12-18T00:01:44;102993.97;;;-3.25;80.46
55456;BME280;63021;52.836;6.376;2022-12-18T00:04:25;102994.81;;;-3.28;81.20
55456;BME280;63021;52.836;6.376;2022-12-18T00:06:50;102989.66;;;-3.34;81.30
55456;BME280;63021;52.836;6.376;2022-12-18T00:09:16;102984.44;;;-3.37;80.63
55456;BME280;63021;52.836;6.376;2022-12-18T00:11:41;102990.53;;;-3.38;80.97
55456;BME280;63021;52.836;6.376;2022-12-18T00:14:09;102993.13;;;-3.40;80.93
55456;BME280;63021;52.836;6.376;2022-12-18T00:16:35;102990.53;;;-3.41;81.24
55456;BME280;63021;52.836;6.376;2022-12-18T00:19:03;102988.78;;;-3.42;81.03
55456;BME280;63021;52.836;6.376;2022-12-18T00:21:30;102983.59;;;-3.45;81.03
55456;BME280;63021;52.836;6.376;2022-12-18T00:23:57;102989.66;;;-3.48;81.23
55456;BME280;63021;52.836;6.376;2022-12-18T00:26:26;102986.22;;;-3.50;80.58
55456;BME280;63021;52.836;6.376;2022-12-18T00:28:52;102982.72;;;-3.52;81.16
55456;BME280;63021;52.836;6.376;2022-12-18T00:31:23;102980.13;;;-3.54;81.10
55456;BME280;63021;52.836;6.376;2022-12-18T00:33:49;102979.28;;;-3.53;81.12
55456;BME280;63021;52.836;6.376;2022-12-18T00:36:23;102982.75;;;-3.55;80.44
55456;BME280;63021;52.836;6.376;2022-12-18T00:38:49;102974.06;;;-3.54;80.76
55456;BME280;63021;52.836;6.376;2022-12-18T00:41:16;102978.41;;;-3.56;80.58
55456;BME280;63021;52.836;6.376;2022-12-18T00:44:03;102968.88;;;-3.59;81.33
55456;BME280;63021;52.836;6.376;2022-12-18T00:46:28;102972.34;;;-3.60;81.17
55456;BME280;63021;52.836;6.376;2022-12-18T00:48:54;102989.72;;;-3.59;81.33
55456;BME280;63021;52.836;6.376;2022-12-18T00:51:19;102983.63;;;-3.61;81.21
55456;BME280;63021;52.836;6.376;2022-12-18T00:53:45;102981.00;;;-3.61;80.63
55456;BME280;63021;52.836;6.376;2022-12-18T00:56:10;102980.16;;;-3.63;81.47
55456;BME280;63021;52.836;6.376;2022-12-18T00:58:35;102973.22;;;-3.66;80.96
55456;BME280;63021;52.836;6.376;2022-12-18T01:01:02;102971.47;;;-3.63;81.26
55456;BME280;63021;52.836;6.376;2022-12-18T01:03:28;102968.88;;;-3.63;80.88
55456;BME280;63021;52.836;6.376;2022-12-18T01:05:53;102968.00;;;-3.64;81.32
55456;BME280;63021;52.836;6.376;2022-12-18T01:08:19;102966.25;;;-3.63;81.26
55456;BME280;63021;52.836;6.376;2022-12-18T01:10:44;102966.25;;;-3.65;81.44
55456;BME280;63021;52.836;6.376;2022-12-18T01:13:09;102965.41;;;-3.66;80.76
55456;BME280;63021;52.836;6.376;2022-12-18T01:15:35;102969.75;;;-3.66;80.38
55456;BME280;63021;52.836;6.376;2022-12-18T01:18:00;102981.03;;;-3.67;80.82
55456;BME280;63021;52.836;6.376;2022-12-18T01:20:26;102967.13;;;-3.71;80.49
55456;BME280;63021;52.836;6.376;2022-12-18T01:22:51;102970.63;;;-3.72;81.45
55456;BME280;63021;52.836;6.376;2022-12-18T01:25:16;102971.50;;;-3.74;80.78
55456;BME280;63021;52.836;6.376;2022-12-18T01:27:43;102974.09;;;-3.76;81.41
55456;BME280;63021;52.836;6.376;2022-12-18T01:30:08;102985.38;;;-3.77;80.74
55456;BME280;63021;52.836;6.376;2022-12-18T01:32:34;102984.53;;;-3.79;80.33
55456;BME280;63021;52.836;6.376;2022-12-18T01:34:59;102988.00;;;-3.80;80.51
55456;BME280;63021;52.836;6.376;2022-12-18T01:37:24;102995.81;;;-3.80;80.92
55456;BME280;63021;52.836;6.376;2022-12-18T01:39:50;102995.81;;;-3.83;81.38
55456;BME280;63021;52.836;6.376;2022-12-18T01:42:19;102985.41;;;-3.83;81.43
55456;BME280;63021;52.836;6.376;2022-12-18T01:45:21;102978.44;;;-3.83;80.40
55456;BME280;63021;52.836;6.376;2022-12-18T01:47:50;102971.50;;;-3.87;80.92
55456;BME280;63021;52.836;6.376;2022-12-18T01:52:46;102981.06;;;-3.93;80.96
55456;BME280;63021;52.836;6.376;2022-12-18T01:55:13;102987.13;;;-3.94;81.08
55456;BME280;63021;52.836;6.376;2022-12-18T01:57:40;102990.59;;;-3.97;81.00
55456;BME280;63021;52.836;6.376;2022-12-18T02:00:10;102993.19;;;-3.98;80.30
55456;BME280;63021;52.836;6.376;2022-12-18T02:02:36;103001.00;;;-4.02;81.22
55456;BME280;63021;52.836;6.376;2022-12-18T02:05:02;103004.47;;;-4.06;80.95
55456;BME280;63021;52.836;6.376;2022-12-18T02:12:40;103020.09;;;-4.15;81.42
55456;BME280;63021;52.836;6.376;2022-12-18T02:15:15;103021.81;;;-4.20;81.20
55456;BME280;63021;52.836;6.376;2022-12-18T02:20:27;103013.13;;;-4.28;80.93
55456;BME280;63021;52.836;6.376;2022-12-18T02:23:04;103011.38;;;-4.32;80.95
55456;BME280;63021;52.836;6.376;2022-12-18T02:25:38;103015.72;;;-4.36;80.74
55456;BME280;63021;52.836;6.376;2022-12-18T02:28:09;103007.03;;;-4.43;81.42
55456;BME280;63021;52.836;6.376;2022-12-18T02:30:37;102995.78;;;-4.45;81.44
55456;BME280;63021;52.836;6.376;2022-12-18T02:33:06;102997.47;;;-4.50;80.83
55456;BME280;63021;52.836;6.376;2022-12-18T02:35:34;102998.34;;;-4.54;80.67
55456;BME280;63021;52.836;6.376;2022-12-18T02:38:03;103001.81;;;-4.58;80.89
55456;BME280;63021;52.836;6.376;2022-12-18T02:40:29;102999.19;;;-4.61;81.37
55456;BME280;63021;52.836;6.376;2022-12-18T02:42:55;102992.28;;;-4.65;81.68
55456;BME280;63021;52.836;6.376;2022-12-18T02:45:27;102998.31;;;-4.70;80.44
55456;BME280;63021;52.836;6.376;2022-12-18T02:47:52;102992.22;;;-4.75;80.66
55456;BME280;63021;52.836;6.376;2022-12-18T02:58:27;103000.84;;;-4.85;80.68
55456;BME280;63021;52.836;6.376;2022-12-18T03:03:40;102986.13;;;-4.92;80.75
55456;BME280;63021;52.836;6.376;2022-12-18T03:06:12;102980.91;;;-4.95;80.38
55456;BME280;63021;52.836;6.376;2022-12-18T03:08:43;102967.88;;;-5.00;81.11
55456;BME280;63021;52.836;6.376;2022-12-18T03:11:12;102964.41;;;-5.03;81.50
55456;BME280;63021;52.836;6.376;2022-12-18T03:13:59;102965.28;;;-5.06;80.46
55456;BME280;63021;52.836;6.376;2022-12-18T03:16:28;102964.41;;;-5.10;80.72
55456;BME280;63021;52.836;6.376;2022-12-18T03:21:27;102960.91;;;-5.15;80.36
55456;BME280;63021;52.836;6.376;2022-12-18T03:23:54;102956.56;;;-5.17;80.64
55456;BME280;63021;52.836;6.376;2022-12-18T03:26:23;102972.13;;;-5.20;80.83
55456;BME280;63021;52.836;6.376;2022-12-18T03:28:53;102968.69;;;-5.24;81.00
55456;BME280;63021;52.836;6.376;2022-12-18T03:31:22;102978.16;;;-5.26;80.56
55456;BME280;63021;52.836;6.376;2022-12-18T03:33:56;102977.28;;;-5.30;80.39
55456;BME280;63021;52.836;6.376;2022-12-18T03:36:23;102979.88;;;-5.33;81.01
55456;BME280;63021;52.836;6.376;2022-12-18T03:38:49;102989.38;;;-5.36;80.83
55456;BME280;63021;52.836;6.376;2022-12-18T03:41:38;102985.03;;;-5.39;80.29
55456;BME280;63021;52.836;6.376;2022-12-18T03:44:11;102983.28;;;-5.42;80.22
55456;BME280;63021;52.836;6.376;2022-12-18T03:46:54;102978.06;;;-5.42;81.12
55456;BME280;63021;52.836;6.376;2022-12-18T03:49:24;102985.00;;;-5.45;81.25
55456;BME280;63021;52.836;6.376;2022-12-18T03:52:01;102983.25;;;-5.49;80.53
55456;BME280;63021;52.836;6.376;2022-12-18T03:54:29;102981.50;;;-5.52;81.07
55456;BME280;63021;52.836;6.376;2022-12-18T03:57:05;102984.06;;;-5.55;80.67
55456;BME280;63021;52.836;6.376;2022-12-18T03:59:33;102971.94;;;-5.58;80.85
55456;BME280;63021;52.836;6.376;2022-12-18T04:02:01;102976.25;;;-5.60;80.80
55456;BME280;63021;52.836;6.376;2022-12-18T04:04:30;102970.19;;;-5.62;80.77
55456;BME280;63021;52.836;6.376;2022-12-18T04:06:57;102964.97;;;-5.63;80.44
55456;BME280;63021;52.836;6.376;2022-12-18T04:09:23;102962.38;;;-5.63;80.49
55456;BME280;63021;52.836;6.376;2022-12-18T04:11:51;102959.78;;;-5.65;80.68
55456;BME280;63021;52.836;6.376;2022-12-18T04:14:16;102960.66;;;-5.67;80.86
55456;BME280;63021;52.836;6.376;2022-12-18T04:16:42;102960.63;;;-5.69;80.58
55456;BME280;63021;52.836;6.376;2022-12-18T04:19:07;102958.00;;;-5.70;80.20
55456;BME280;63021;52.836;6.376;2022-12-18T04:21:32;102944.19;;;-5.72;80.15
55456;BME280;63021;52.836;6.376;2022-12-18T04:23:58;102943.31;;;-5.75;81.01
55456;BME280;63021;52.836;6.376;2022-12-18T04:26:23;102945.84;;;-5.78;80.26
55456;BME280;63021;52.836;6.376;2022-12-18T04:28:48;102962.31;;;-5.79;79.95
55456;BME280;63021;52.836;6.376;2022-12-18T04:31:14;102957.97;;;-5.80;80.07
55456;BME280;63021;52.836;6.376;2022-12-18T04:33:39;102961.41;;;-5.82;80.33
55456;BME280;63021;52.836;6.376;2022-12-18T04:36:05;102973.50;;;-5.83;80.35
55456;BME280;63021;52.836;6.376;2022-12-18T04:38:30;102976.97;;;-5.82;81.01
55456;BME280;63021;52.836;6.376;2022-12-18T04:40:56;102967.44;;;-5.85;80.91
55456;BME280;63021;52.836;6.376;2022-12-18T04:43:21;102971.78;;;-5.84;81.03
55456;BME280;63021;52.836;6.376;2022-12-18T04:45:46;102964.81;;;-5.86;80.28
55456;BME280;63021;52.836;6.376;2022-12-18T04:48:12;102963.97;;;-5.87;80.60
55456;BME280;63021;52.836;6.376;2022-12-18T04:50:37;102967.41;;;-5.86;80.42
55456;BME280;63021;52.836;6.376;2022-12-18T04:53:03;102963.97;;;-5.87;80.18
55456;BME280;63021;52.836;6.376;2022-12-18T04:55:28;102960.47;;;-5.89;80.34
55456;BME280;63021;52.836;6.376;2022-12-18T04:57:53;102958.78;;;-5.88;80.32
55456;BME280;63021;52.836;6.376;2022-12-18T05:00:19;102961.34;;;-5.92;80.02
55456;BME280;63021;52.836;6.376;2022-12-18T05:02:45;102967.41;;;-5.91;81.06
55456;BME280;63021;52.836;6.376;2022-12-18T05:05:11;102962.22;;;-5.91;79.95
55456;BME280;63021;52.836;6.376;2022-12-18T05:07:37;102965.66;;;-5.92;80.14
55456;BME280;63021;52.836;6.376;2022-12-18T05:10:03;102975.16;;;-5.93;81.17
55456;BME280;63021;52.836;6.376;2022-12-18T05:12:28;102974.31;;;-5.95;80.77
55456;BME280;63021;52.836;6.376;2022-12-18T05:14:53;102982.94;;;-5.94;79.92
55456;BME280;63021;52.836;6.376;2022-12-18T05:17:19;102985.53;;;-5.97;80.21
55456;BME280;63021;52.836;6.376;2022-12-18T05:19:44;102983.81;;;-5.98;80.02
55456;BME280;63021;52.836;6.376;2022-12-18T05:22:09;102985.53;;;-6.00;80.10
55456;BME280;63021;52.836;6.376;2022-12-18T05:24:35;102976.84;;;-6.02;80.42
55456;BME280;63021;52.836;6.376;2022-12-18T05:27:01;102982.88;;;-6.05;80.24
55456;BME280;63021;52.836;6.376;2022-12-18T05:29:26;102979.41;;;-6.05;80.51
55456;BME280;63021;52.836;6.376;2022-12-18T05:31:51;102976.84;;;-6.05;80.20
55456;BME280;63021;52.836;6.376;2022-12-18T05:34:17;102973.38;;;-6.07;80.10
55456;BME280;63021;52.836;6.376;2022-12-18T05:36:42;102972.47;;;-6.10;80.83
55456;BME280;63021;52.836;6.376;2022-12-18T05:39:08;102988.03;;;-6.10;80.70
55456;BME280;63021;52.836;6.376;2022-12-18T05:41:33;102998.38;;;-6.11;80.93
55456;BME280;63021;52.836;6.376;2022-12-18T05:43:59;103000.97;;;-6.13;80.39
55456;BME280;63021;52.836;6.376;2022-12-18T05:46:25;103000.09;;;-6.15;80.83
55456;BME280;63021;52.836;6.376;2022-12-18T05:48:50;103006.13;;;-6.16;81.02
55456;BME280;63021;52.836;6.376;2022-12-18T05:51:19;103007.84;;;-6.16;80.94
55456;BME280;63021;52.836;6.376;2022-12-18T05:53:45;103013.91;;;-6.17;80.24
55456;BME280;63021;52.836;6.376;2022-12-18T05:56:14;103019.06;;;-6.19;80.93
55456;BME280;63021;52.836;6.376;2022-12-18T05:58:40;103015.59;;;-6.19;80.52
55456;BME280;63021;52.836;6.376;2022-12-18T06:01:14;103018.19;;;-6.18;80.96
55456;BME280;63021;52.836;6.376;2022-12-18T06:03:40;103004.34;;;-6.23;80.83
55456;BME280;63021;52.836;6.376;2022-12-18T06:06:20;103010.41;;;-6.21;80.79
55456;BME280;63021;52.836;6.376;2022-12-18T06:08:46;103019.00;;;-6.23;81.15
55456;BME280;63021;52.836;6.376;2022-12-18T06:11:12;103017.28;;;-6.24;80.48
55456;BME280;63021;52.836;6.376;2022-12-18T06:13:38;103020.72;;;-6.25;80.99
55456;BME280;63021;52.836;6.376;2022-12-18T06:16:05;103020.75;;;-6.24;81.07
55456;BME280;63021;52.836;6.376;2022-12-18T06:18:31;103019.88;;;-6.24;80.01
55456;BME280;63021;52.836;6.376;2022-12-18T06:20:57;103014.69;;;-6.28;80.71
55456;BME280;63021;52.836;6.376;2022-12-18T06:23:22;103019.88;;;-6.26;80.26
55456;BME280;63021;52.836;6.376;2022-12-18T06:25:48;103015.53;;;-6.27;80.83
55456;BME280;63021;52.836;6.376;2022-12-18T06:28:14;103024.16;;;-6.27;80.51
55456;BME280;63021;52.836;6.376;2022-12-18T06:30:43;103014.69;;;-6.28;80.25
55456;BME280;63021;52.836;6.376;2022-12-18T06:33:08;103014.63;;;-6.31;80.97
55456;BME280;63021;52.836;6.376;2022-12-18T06:35:34;103006.00;;;-6.30;80.00
55456;BME280;63021;52.836;6.376;2022-12-18T06:38:01;103003.41;;;-6.30;80.79
55456;BME280;63021;52.836;6.376;2022-12-18T06:40:26;102994.78;;;-6.30;80.86
55456;BME280;63021;52.836;6.376;2022-12-18T06:42:51;103004.25;;;-6.32;79.98
55456;BME280;63021;52.836;6.376;2022-12-18T06:45:17;102999.91;;;-6.35;80.17
55456;BME280;63021;52.836;6.376;2022-12-18T06:47:42;102998.16;;;-6.36;80.38
55456;BME280;63021;52.836;6.376;2022-12-18T06:50:08;102998.16;;;-6.39;79.90
55456;BME280;63021;52.836;6.376;2022-12-18T06:52:33;102999.84;;;-6.39;80.98
55456;BME280;63021;52.836;6.376;2022-12-18T06:54:59;102997.25;;;-6.41;80.87
55456;BME280;63021;52.836;6.376;2022-12-18T06:57:24;103000.69;;;-6.43;80.86
55456;BME280;63021;52.836;6.376;2022-12-18T06:59:50;102990.34;;;-6.43;80.01
55456;BME280;63021;52.836;6.376;2022-12-18T07:02:16;102980.78;;;-6.46;80.96
55456;BME280;63021;52.836;6.376;2022-12-18T07:04:41;102977.31;;;-6.47;80.49
55456;BME280;63021;52.836;6.376;2022-12-18T07:07:07;102974.72;;;-6.47;80.29
55456;BME280;63021;52.836;6.376;2022-12-18T07:09:32;102965.25;;;-6.48;80.86
55456;BME280;63021;52.836;6.376;2022-12-18T07:11:57;102964.34;;;-6.50;80.57
55456;BME280;63021;52.836;6.376;2022-12-18T07:14:23;102958.28;;;-6.50;80.07
55456;BME280;63021;52.836;6.376;2022-12-18T07:16:48;102964.31;;;-6.53;80.43
55456;BME280;63021;52.836;6.376;2022-12-18T07:19:13;102966.03;;;-6.53;80.95
55456;BME280;63021;52.836;6.376;2022-12-18T07:21:39;102963.44;;;-6.55;80.76
55456;BME280;63021;52.836;6.376;2022-12-18T07:24:05;102966.88;;;-6.57;80.26
55456;BME280;63021;52.836;6.376;2022-12-18T07:26:30;102965.09;;;-6.60;80.52
55456;BME280;63021;52.836;6.376;2022-12-18T07:28:57;102972.88;;;-6.58;80.60
55456;BME280;63021;52.836;6.376;2022-12-18T07:31:24;102965.09;;;-6.62;80.68
55456;BME280;63021;52.836;6.376;2022-12-18T07:33:51;102965.09;;;-6.60;80.83
55456;BME280;63021;52.836;6.376;2022-12-18T07:36:17;102971.13;;;-6.61;80.24
55456;BME280;63021;52.836;6.376;2022-12-18T07:38:42;102970.25;;;-6.63;80.73
55456;BME280;63021;52.836;6.376;2022-12-18T07:41:11;102971.13;;;-6.63;80.27
55456;BME280;63021;52.836;6.376;2022-12-18T07:43:38;102966.81;;;-6.62;80.55
55456;BME280;63021;52.836;6.376;2022-12-18T07:46:04;102955.56;;;-6.63;80.49
55456;BME280;63021;52.836;6.376;2022-12-18T07:48:30;102966.81;;;-6.62;80.42
55456;BME280;63021;52.836;6.376;2022-12-18T07:51:00;102965.09;;;-6.62;80.68
55456;BME280;63021;52.836;6.376;2022-12-18T07:53:26;102977.19;;;-6.60;80.31
55456;BME280;63021;52.836;6.376;2022-12-18T07:55:56;102975.44;;;-6.62;80.51
55456;BME280;63021;52.836;6.376;2022-12-18T07:58:22;102970.28;;;-6.62;80.03
55456;BME280;63021;52.836;6.376;2022-12-18T08:00:47;102969.44;;;-6.59;80.50
55456;BME280;63021;52.836;6.376;2022-12-18T08:03:12;102972.91;;;-6.57;80.38
55456;BME280;63021;52.836;6.376;2022-12-18T08:05:38;102961.69;;;-6.57;80.26
55456;BME280;63021;52.836;6.376;2022-12-18T08:08:05;102960.84;;;-6.55;79.74
55456;BME280;63021;52.836;6.376;2022-12-18T08:10:30;102956.56;;;-6.51;79.97
55456;BME280;63021;52.836;6.376;2022-12-18T08:12:56;102953.13;;;-6.49;80.21
55456;BME280;63021;52.836;6.376;2022-12-18T08:15:21;102950.56;;;-6.46;79.45
55456;BME280;63021;52.836;6.376;2022-12-18T08:17:46;102948.88;;;-6.43;80.07
55456;BME280;63021;52.836;6.376;2022-12-18T08:20:12;102942.81;;;-6.41;79.65
55456;BME280;63021;52.836;6.376;2022-12-18T08:22:46;102936.78;;;-6.40;79.79
55456;BME280;63021;52.836;6.376;2022-12-18T08:25:11;102935.97;;;-6.34;79.55
55456;BME280;63021;52.836;6.376;2022-12-18T08:27:37;102931.66;;;-6.32;80.10
55456;BME280;63021;52.836;6.376;2022-12-18T08:30:03;102935.16;;;-6.29;79.85
55456;BME280;63021;52.836;6.376;2022-12-18T08:32:29;102930.88;;;-6.23;79.57
55456;BME280;63021;52.836;6.376;2022-12-18T08:34:54;102930.03;;;-6.21;80.21
55456;BME280;63021;52.836;6.376;2022-12-18T08:37:20;102931.78;;;-6.17;80.21
55456;BME280;63021;52.836;6.376;2022-12-18T08:39:45;102931.81;;;-6.14;79.79
55456;BME280;63021;52.836;6.376;2022-12-18T08:42:10;102920.59;;;-6.11;79.72
55456;BME280;63021;52.836;6.376;2022-12-18T08:44:55;102931.88;;;-6.06;80.12
55456;BME280;63021;52.836;6.376;2022-12-18T08:47:20;102935.34;;;-6.02;80.06
55456;BME280;63021;52.836;6.376;2022-12-18T08:49:46;102930.19;;;-5.98;79.53
55456;BME280;63021;52.836;6.376;2022-12-18T08:52:11;102938.00;;;-5.93;80.11
55456;BME280;63021;52.836;6.376;2022-12-18T08:54:37;102938.03;;;-5.88;79.93
55456;BME280;63021;52.836;6.376;2022-12-18T08:57:02;102938.91;;;-5.85;80.32
55456;BME280;63021;52.836;6.376;2022-12-18T08:59:29;102932.91;;;-5.76;79.77
55456;BME280;63021;52.836;6.376;2022-12-18T09:01:55;102927.75;;;-5.71;79.45
55456;BME280;63021;52.836;6.376;2022-12-18T09:04:22;102921.75;;;-5.67;79.22
55456;BME280;63021;52.836;6.376;2022-12-18T09:06:51;102923.50;;;-5.57;79.87
55456;BME280;63021;52.836;6.376;2022-12-18T09:09:17;102927.88;;;-5.53;79.63
55456;BME280;63021;52.836;6.376;2022-12-18T09:11:42;102935.66;;;-5.47;80.32
55456;BME280;63021;52.836;6.376;2022-12-18T09:14:09;102936.53;;;-5.42;79.91
55456;BME280;63021;52.836;6.376;2022-12-18T09:16:35;102936.59;;;-5.35;79.25
55456;BME280;63021;52.836;6.376;2022-12-18T09:19:03;102930.56;;;-5.31;79.49
55456;BME280;63021;52.836;6.376;2022-12-18T09:21:31;102926.25;;;-5.23;79.14
55456;BME280;63021;52.836;6.376;2022-12-18T09:23:57;102918.50;;;-5.17;79.39
55456;BME280;63021;52.836;6.376;2022-12-18T09:26:24;102913.31;;;-5.11;80.09
55456;BME280;63021;52.836;6.376;2022-12-18T09:28:50;102910.72;;;-5.03;79.74
55456;BME280;63021;52.836;6.376;2022-12-18T09:31:17;102910.78;;;-4.95;79.51
55456;BME280;63021;52.836;6.376;2022-12-18T09:33:43;102914.22;;;-4.90;79.17
55456;BME280;63021;52.836;6.376;2022-12-18T09:36:12;102913.38;;;-4.80;79.09
55456;BME280;63021;52.836;6.376;2022-12-18T09:38:38;102923.81;;;-4.72;79.87
55456;BME280;63021;52.836;6.376;2022-12-18T09:44:03;102931.63;;;-4.58;78.97
55456;BME280;63021;52.836;6.376;2022-12-18T09:46:33;102929.88;;;-4.50;79.08
55456;BME280;63021;52.836;6.376;2022-12-18T09:49:02;102918.63;;;-4.43;79.22
55456;BME280;63021;52.836;6.376;2022-12-18T09:51:35;102929.06;;;-4.37;79.00
55456;BME280;63021;52.836;6.376;2022-12-18T09:54:04;102924.69;;;-4.30;79.16
55456;BME280;63021;52.836;6.376;2022-12-18T09:56:37;102908.22;;;-4.26;79.09
55456;BME280;63021;52.836;6.376;2022-12-18T09:59:04;102909.97;;;-4.20;79.31
55456;BME280;63021;52.836;6.376;2022-12-18T10:01:31;102902.16;;;-4.14;79.49
55456;BME280;63021;52.836;6.376;2022-12-18T10:03:58;102896.06;;;-4.08;79.20
55456;BME280;63021;52.836;6.376;2022-12-18T10:14:49;102863.09;;;-3.89;78.50
55456;BME280;63021;52.836;6.376;2022-12-18T10:19:50;102864.81;;;-3.82;78.68
55456;BME280;63021;52.836;6.376;2022-12-18T10:25:14;102853.50;;;-3.79;79.11
55456;BME280;63021;52.836;6.376;2022-12-18T10:27:41;102853.53;;;-3.76;78.61
55456;BME280;63021;52.836;6.376;2022-12-18T10:30:18;102848.28;;;-3.70;78.58
55456;BME280;63021;52.836;6.376;2022-12-18T10:32:44;102826.59;;;-3.68;79.29
55456;BME280;63021;52.836;6.376;2022-12-18T10:35:27;102828.31;;;-3.60;78.46
55456;BME280;63021;52.836;6.376;2022-12-18T10:38:20;102825.66;;;-3.56;78.44
55456;BME280;63021;52.836;6.376;2022-12-18T10:43:34;102814.34;;;-3.47;79.10
55456;BME280;63021;52.836;6.376;2022-12-18T10:46:11;102800.44;;;-3.43;78.46
55456;BME280;63021;52.836;6.376;2022-12-18T10:48:40;102816.88;;;-3.38;79.30
55456;BME280;63021;52.836;6.376;2022-12-18T10:51:24;102802.97;;;-3.32;78.88
55456;BME280;63021;52.836;6.376;2022-12-18T10:53:56;102811.63;;;-3.28;78.34
55456;BME280;63021;52.836;6.376;2022-12-18T10:56:24;102808.13;;;-3.23;78.15
55456;BME280;63021;52.836;6.376;2022-12-18T10:58:58;102804.66;;;-3.19;78.20
55456;BME280;63021;52.836;6.376;2022-12-18T11:01:24;102808.09;;;-3.17;78.80
55456;BME280;63021;52.836;6.376;2022-12-18T11:06:19;102814.94;;;-3.03;78.90
55456;BME280;63021;52.836;6.376;2022-12-18T11:09:04;102801.91;;;-2.99;77.91
55456;BME280;63021;52.836;6.376;2022-12-18T11:11:31;102802.72;;;-2.93;78.17
55456;BME280;63021;52.836;6.376;2022-12-18T11:14:04;102799.22;;;-2.89;78.18
55456;BME280;63021;52.836;6.376;2022-12-18T11:16:35;102794.84;;;-2.86;77.86
55456;BME280;63021;52.836;6.376;2022-12-18T11:22:01;102803.44;;;-2.76;78.34
55456;BME280;63021;52.836;6.376;2022-12-18T11:24:32;102803.44;;;-2.71;77.81
55456;BME280;63021;52.836;6.376;2022-12-18T11:27:04;102800.78;;;-2.67;77.47
55456;BME280;63021;52.836;6.376;2022-12-18T11:29:34;102791.16;;;-2.63;77.74
55456;BME280;63021;52.836;6.376;2022-12-18T11:34:46;102770.28;;;-2.58;77.90
55456;BME280;63021;52.836;6.376;2022-12-18T11:37:15;102778.06;;;-2.55;78.00
55456;BME280;63021;52.836;6.376;2022-12-18T11:39:52;102775.41;;;-2.51;77.76
55456;BME280;63021;52.836;6.376;2022-12-18T11:42:25;102770.16;;;-2.48;77.72
55456;BME280;63021;52.836;6.376;2022-12-18T11:50:14;102759.63;;;-2.40;77.04
55456;BME280;63021;52.836;6.376;2022-12-18T11:52:42;102763.06;;;-2.35;77.50
55456;BME280;63021;52.836;6.376;2022-12-18T11:55:15;102759.56;;;-2.32;76.57
55456;BME280;63021;52.836;6.376;2022-12-18T12:00:18;102749.09;;;-2.28;77.56
55456;BME280;63021;52.836;6.376;2022-12-18T12:17:13;102696.69;;;-2.09;76.34
55456;BME280;63021;52.836;6.376;2022-12-18T12:25:36;102676.56;;;-2.01;76.70
55456;BME280;63021;52.836;6.376;2022-12-18T12:30:57;102667.84;;;-1.98;76.22
55456;BME280;63021;52.836;6.376;2022-12-18T12:36:21;102675.59;;;-1.92;76.32
55456;BME280;63021;52.836;6.376;2022-12-18T12:38:56;102660.75;;;-1.90;75.76
55456;BME280;63021;52.836;6.376;2022-12-18T12:41:25;102665.06;;;-1.87;76.32
55456;BME280;63021;52.836;6.376;2022-12-18T12:44:16;102651.97;;;-1.84;76.39
55456;BME280;63021;52.836;6.376;2022-12-18T12:46:43;102649.31;;;-1.81;75.22
55456;BME280;63021;52.836;6.376;2022-12-18T12:49:13;102636.22;;;-1.78;75.25
55456;BME280;63021;52.836;6.376;2022-12-18T12:51:43;102631.84;;;-1.76;75.15
55456;BME280;63021;52.836;6.376;2022-12-18T12:54:19;102627.41;;;-1.72;75.65
55456;BME280;63021;52.836;6.376;2022-12-18T12:57:03;102630.88;;;-1.70;75.63
55456;BME280;63021;52.836;6.376;2022-12-18T13:02:37;102623.84;;;-1.67;74.99
55456;BME280;63021;52.836;6.376;2022-12-18T13:05:28;102614.25;;;-1.65;75.77
55456;BME280;63021;52.836;6.376;2022-12-18T13:08:08;102619.47;;;-1.63;74.71
55456;BME280;63021;52.836;6.376;2022-12-18T13:10:37;102614.22;;;-1.62;75.58
55456;BME280;63021;52.836;6.376;2022-12-18T13:23:00;102607.97;;;-1.53;75.20
55456;BME280;63021;52.836;6.376;2022-12-18T13:25:38;102601.88;;;-1.52;74.77
55456;BME280;63021;52.836;6.376;2022-12-18T13:28:10;102594.00;;;-1.50;75.00
55456;BME280;63021;52.836;6.376;2022-12-18T13:30:44;102591.38;;;-1.49;74.96
55456;BME280;63021;52.836;6.376;2022-12-18T13:35:41;102571.31;;;-1.48;75.21
55456;BME280;63021;52.836;6.376;2022-12-18T13:40:54;102579.94;;;-1.42;74.22
55456;BME280;63021;52.836;6.376;2022-12-18T13:48:36;102566.81;;;-1.38;74.04
55456;BME280;63021;52.836;6.376;2022-12-18T13:51:09;102557.19;;;-1.38;74.72
55456;BME280;63021;52.836;6.376;2022-12-18T13:56:43;102555.41;;;-1.34;73.73
55456;BME280;63021;52.836;6.376;2022-12-18T14:01:56;102548.41;;;-1.32;73.84
55456;BME280;63021;52.836;6.376;2022-12-18T14:04:30;102545.75;;;-1.31;74.62
55456;BME280;63021;52.836;6.376;2022-12-18T14:09:36;102542.31;;;-1.33;74.62
55456;BME280;63021;52.836;6.376;2022-12-18T14:12:02;102555.38;;;-1.33;74.58
55456;BME280;63021;52.836;6.376;2022-12-18T14:14:49;102544.84;;;-1.28;74.22
55456;BME280;63021;52.836;6.376;2022-12-18T14:17:16;102550.97;;;-1.29;74.22
55456;BME280;63021;52.836;6.376;2022-12-18T14:19:48;102548.34;;;-1.28;73.88
55456;BME280;63021;52.836;6.376;2022-12-18T14:22:18;102549.16;;;-1.26;74.42
55456;BME280;63021;52.836;6.376;2022-12-18T14:24:44;102553.50;;;-1.25;73.73
55456;BME280;63021;52.836;6.376;2022-12-18T14:27:22;102566.56;;;-1.25;74.49
55456;BME280;63021;52.836;6.376;2022-12-18T14:29:48;102560.44;;;-1.24;73.32
55456;BME280;63021;52.836;6.376;2022-12-18T14:32:16;102569.09;;;-1.20;73.95
55456;BME280;63021;52.836;6.376;2022-12-18T14:34:50;102558.63;;;-1.20;74.34
55456;BME280;63021;52.836;6.376;2022-12-18T14:37:20;102574.28;;;-1.18;73.69
55456;BME280;63021;52.836;6.376;2022-12-18T14:40:00;102553.38;;;-1.18;74.15
55456;BME280;63021;52.836;6.376;2022-12-18T14:42:27;102550.75;;;-1.18;73.34
55456;BME280;63021;52.836;6.376;2022-12-18T14:47:56;102524.66;;;-1.20;73.58
55456;BME280;63021;52.836;6.376;2022-12-18T14:50:21;102520.31;;;-1.21;73.15
55456;BME280;63021;52.836;6.376;2022-12-18T14:52:46;102522.91;;;-1.19;73.63
55456;BME280;63021;52.836;6.376;2022-12-18T14:55:16;102509.00;;;-1.22;73.78
55456;BME280;63021;52.836;6.376;2022-12-18T14:57:42;102502.94;;;-1.22;74.08